Terminal Aerodrome Forecast
Issued by NWS

Home | Current Version | Previous Version | Text Only | Print | Product List | Glossary On
Versions: 1 2 3 4 5 6 7 8 9 10 11 12 13 14
000
FTUS45 KTFX 021137
TAFBZN
TAF
KBZN 021137Z 0212/0312 VRB06KT P6SM SCT200
     FM021800 27015G30KT P6SM SCT150 BKN200
     FM030100 20010KT P6SM BKN180=

USA.gov is the U.S. government's official web portal to all federal, state and local government web resources and services.